Terminal Aerodrome Forecast
Issued by NWS Rapid City, SD

Home | Current Version | Previous Version | Text Only | Print | Product List | Glossary Off
Versions: 1 2 3 4 5 6 7 8 9 10 11 12 13 14 15 16 17 18 19 20 21 22 23 24

000
FTUS43 KUNR 232126 AAA
TAFRAP
TAF AMD
KRAP 232126Z 2321/2418 11010KT P6SM OVC018
     FM240400 06010KT 5SM -SHRA BR OVC010
     FM240800 03010KT 2SM RA BR OVC005=

USA.gov is the U.S. government's official web portal to all federal, state and local government web resources and services.